Ustick, Illinois
Current Conditions -  °F | °C
As of 10:35 AM on Thursday 23 Oct 2014 (Local Time) from KSQI Reporting Station
Clear Clear  
Wind Chill: 55°   Ceiling: Unl
Heat Index: 55°   Visibility: 10mi
Dew Point: 43°   Wind: 7mph
Humidity: 63%   Direction: 190°S
Pressure: 30.17"   Gusts: NA
Location:  41.8285°N, 89.9656°W
Report Text: KSQI 231535Z AUTO 19006KT 10SM CLR 13/06 A3017 RMK AO1
Loading
Personal Weather Stations






























Interactive Weather Map New forecast layout! Learn more

10-Day Weather Forecast

Advertisements
Track Severe Weather on mobile